createdAt,value
2023-05-09T00:01:31.714Z,0.90
2023-05-09T00:04:00.010Z,1.20
2023-05-09T00:06:28.554Z,1.20
2023-05-09T00:08:56.873Z,1.40
2023-05-09T00:11:25.331Z,1.40
2023-05-09T00:13:53.855Z,1.30
2023-05-09T00:16:24.321Z,1.10
2023-05-09T00:18:53.025Z,1.20
2023-05-09T00:21:21.157Z,1.60
2023-05-09T00:23:49.283Z,2.10
2023-05-09T00:26:17.448Z,1.40
2023-05-09T00:28:45.661Z,1.40
2023-05-09T00:31:14.194Z,1.20
2023-05-09T00:33:42.434Z,1.40
2023-05-09T00:36:10.805Z,1.50
2023-05-09T00:38:39.200Z,1.20
2023-05-09T00:41:07.556Z,1.20
2023-05-09T00:43:35.985Z,1.10
2023-05-09T00:46:04.791Z,1.00
2023-05-09T00:48:32.986Z,1.10
2023-05-09T00:51:01.611Z,1.10
2023-05-09T00:53:29.775Z,1.10
2023-05-09T00:56:00.202Z,1.00
2023-05-09T00:58:28.792Z,1.20
2023-05-09T01:00:56.900Z,0.90
2023-05-09T01:03:25.422Z,1.50
2023-05-09T01:06:20.148Z,1.30
2023-05-09T01:08:56.560Z,1.00
2023-05-09T01:11:34.604Z,1.50
2023-05-09T01:14:15.878Z,1.20
2023-05-09T01:17:01.130Z,1.10
2023-05-09T01:20:02.674Z,0.90
2023-05-09T01:22:37.289Z,1.50
2023-05-09T01:25:11.367Z,1.20
2023-05-09T01:27:48.598Z,0.90
2023-05-09T01:30:18.960Z,1.20
2023-05-09T01:32:51.458Z,1.30
2023-05-09T01:35:24.434Z,1.20
2023-05-09T01:37:55.866Z,0.90
2023-05-09T01:40:29.333Z,1.00
2023-05-09T01:43:02.212Z,1.00
2023-05-09T01:45:31.668Z,1.30
2023-05-09T01:48:01.353Z,1.10
2023-05-09T01:50:32.874Z,1.20
2023-05-09T01:53:02.260Z,1.20
2023-05-09T01:55:33.230Z,1.20
2023-05-09T01:58:03.712Z,1.60
2023-05-09T02:00:36.159Z,1.20
2023-05-09T02:03:05.167Z,1.30
2023-05-09T02:05:34.636Z,1.60
2023-05-09T02:08:03.114Z,1.10
2023-05-09T02:10:35.897Z,1.20
2023-05-09T02:13:07.138Z,1.50
2023-05-09T02:15:35.578Z,1.00
2023-05-09T02:18:04.285Z,1.10
2023-05-09T02:20:36.181Z,1.20
2023-05-09T02:23:04.817Z,1.40
2023-05-09T02:25:34.581Z,1.30
2023-05-09T02:28:03.874Z,1.40
2023-05-09T02:30:38.609Z,1.50
2023-05-09T02:33:08.790Z,1.50
2023-05-09T02:35:38.103Z,1.70
2023-05-09T02:38:07.375Z,1.90
2023-05-09T02:40:36.694Z,1.40
2023-05-09T02:43:05.361Z,1.30
2023-05-09T02:45:34.147Z,1.30
2023-05-09T02:48:06.856Z,1.30
2023-05-09T02:50:38.474Z,1.30
2023-05-09T02:53:07.267Z,1.80
2023-05-09T02:55:35.825Z,1.40
2023-05-09T02:58:13.534Z,1.40
2023-05-09T03:00:43.820Z,1.40
2023-05-09T03:03:13.629Z,1.30
2023-05-09T03:05:42.430Z,1.40
2023-05-09T03:08:10.949Z,2.00
2023-05-09T03:10:39.323Z,8.40
2023-05-09T03:13:09.011Z,53.60
2023-05-09T03:15:37.540Z,17.00
2023-05-09T03:18:06.778Z,3.70
2023-05-09T03:20:35.045Z,11.30
2023-05-09T03:23:03.994Z,16.90
2023-05-09T03:25:33.328Z,22.90
2023-05-09T03:28:01.705Z,18.00
2023-05-09T03:30:31.004Z,5.30
2023-05-09T03:32:59.764Z,35.00
2023-05-09T03:35:28.872Z,7.40
2023-05-09T03:37:56.992Z,11.00
2023-05-09T03:40:25.451Z,18.70
2023-05-09T03:43:03.058Z,20.10
2023-05-09T03:45:31.497Z,17.20
2023-05-09T03:47:59.704Z,17.30
2023-05-09T03:50:27.949Z,15.00
2023-05-09T03:52:57.285Z,4.00
2023-05-09T03:55:25.437Z,3.00
2023-05-09T03:57:54.638Z,5.00
2023-05-09T04:00:23.155Z,17.40
2023-05-09T04:02:56.363Z,4.30
2023-05-09T04:05:33.700Z,2.60
2023-05-09T04:08:02.761Z,2.60
2023-05-09T04:10:32.921Z,2.10
2023-05-09T04:13:01.356Z,1.70
2023-05-09T04:15:29.828Z,1.80
2023-05-09T04:17:58.490Z,1.70
2023-05-09T04:20:26.800Z,2.40
2023-05-09T04:22:55.440Z,1.50
2023-05-09T04:25:23.592Z,1.30
2023-05-09T04:27:52.099Z,2.00
2023-05-09T04:30:21.198Z,2.10
2023-05-09T04:32:50.171Z,1.90
2023-05-09T04:35:20.629Z,3.00
2023-05-09T04:37:49.339Z,2.70
2023-05-09T04:40:18.303Z,2.60
2023-05-09T04:42:54.941Z,2.40
2023-05-09T04:45:25.113Z,2.30
2023-05-09T04:47:53.253Z,4.80
2023-05-09T04:50:21.564Z,2.80
2023-05-09T04:52:49.733Z,2.20
2023-05-09T04:55:18.332Z,3.20
2023-05-09T04:57:48.368Z,3.80
2023-05-09T05:00:17.800Z,1.40
2023-05-09T05:02:47.036Z,1.90
2023-05-09T05:05:15.614Z,2.70
2023-05-09T05:07:44.859Z,2.10
2023-05-09T05:10:17.124Z,1.90
2023-05-09T05:12:48.895Z,2.30
2023-05-09T05:15:19.704Z,2.70
2023-05-09T05:17:48.801Z,1.70
2023-05-09T05:20:18.781Z,2.50
2023-05-09T05:22:47.606Z,2.10
2023-05-09T05:25:17.812Z,2.50
2023-05-09T05:27:47.220Z,2.00
2023-05-09T05:30:18.340Z,2.00
2023-05-09T05:32:46.633Z,1.80
2023-05-09T05:35:17.457Z,2.30
2023-05-09T05:37:47.633Z,2.20
2023-05-09T05:40:17.325Z,2.20
2023-05-09T05:42:46.900Z,2.70
2023-05-09T05:45:15.418Z,2.60
2023-05-09T05:47:46.865Z,3.30
2023-05-09T05:50:15.713Z,1.90
2023-05-09T05:52:43.965Z,1.80
2023-05-09T05:55:15.023Z,3.70
2023-05-09T05:57:43.811Z,7.20
2023-05-09T06:00:15.036Z,4.10
2023-05-09T06:02:50.149Z,4.60
2023-05-09T06:05:23.872Z,2.90
2023-05-09T06:07:52.504Z,2.20
2023-05-09T06:10:21.089Z,2.90
2023-05-09T06:12:49.924Z,2.40
2023-05-09T06:15:18.727Z,2.20
2023-05-09T06:17:48.832Z,2.00
2023-05-09T06:20:17.214Z,1.80
2023-05-09T06:22:45.572Z,1.90
2023-05-09T06:25:14.026Z,1.90
2023-05-09T06:27:42.824Z,3.40
2023-05-09T06:30:24.643Z,2.00
2023-05-09T06:32:55.555Z,2.00
2023-05-09T06:35:23.929Z,2.00
2023-05-09T06:37:52.191Z,1.70
2023-05-09T06:40:20.384Z,4.10
2023-05-09T06:42:48.757Z,1.90
2023-05-09T06:45:17.632Z,2.10
2023-05-09T06:47:46.336Z,2.50
2023-05-09T06:50:14.632Z,3.00
2023-05-09T06:52:43.280Z,1.80
2023-05-09T06:55:11.704Z,1.60
2023-05-09T06:57:41.062Z,1.70
2023-05-09T07:00:10.979Z,1.70
2023-05-09T07:02:42.312Z,1.40
2023-05-09T07:05:11.384Z,1.70
2023-05-09T07:07:40.893Z,1.80
2023-05-09T07:10:12.304Z,2.10
2023-05-09T07:12:41.746Z,2.40
2023-05-09T07:15:11.237Z,2.50
2023-05-09T07:17:40.466Z,1.70
2023-05-09T07:20:09.407Z,2.40
2023-05-09T07:22:38.157Z,1.80
2023-05-09T07:25:10.040Z,3.50
2023-05-09T07:27:38.318Z,1.50
2023-05-09T07:30:09.240Z,2.90
2023-05-09T07:32:37.592Z,2.70
2023-05-09T07:35:06.751Z,1.90
2023-05-09T07:37:35.257Z,2.60
2023-05-09T07:40:06.229Z,2.60
2023-05-09T07:42:34.753Z,2.40
2023-05-09T07:45:06.221Z,2.10
2023-05-09T07:47:34.780Z,1.80
2023-05-09T07:50:02.924Z,1.90
2023-05-09T07:52:31.359Z,1.50
2023-05-09T07:54:59.745Z,1.80
2023-05-09T07:57:28.269Z,2.60
2023-05-09T07:59:56.520Z,1.90
2023-05-09T08:02:24.837Z,3.80
2023-05-09T08:04:53.346Z,1.80
2023-05-09T08:07:21.737Z,1.90
2023-05-09T08:09:49.941Z,1.60
2023-05-09T08:12:18.140Z,1.70
2023-05-09T08:14:47.110Z,1.60
2023-05-09T08:17:16.401Z,1.90
2023-05-09T08:19:44.663Z,1.60
2023-05-09T08:22:19.942Z,2.10
2023-05-09T08:24:48.395Z,1.50
2023-05-09T08:27:16.977Z,1.30
2023-05-09T08:29:45.665Z,1.20
2023-05-09T08:32:14.334Z,2.20
2023-05-09T08:34:42.667Z,1.50
2023-05-09T08:37:12.266Z,1.20
2023-05-09T08:39:43.129Z,1.70
2023-05-09T08:42:16.107Z,1.30
2023-05-09T08:44:44.270Z,1.20
2023-05-09T08:47:13.505Z,1.30
2023-05-09T08:49:41.922Z,1.40
2023-05-09T08:52:11.736Z,1.50
2023-05-09T08:54:40.407Z,1.60
2023-05-09T08:57:09.532Z,1.50
2023-05-09T08:59:40.495Z,1.30
2023-05-09T09:02:14.400Z,1.60
2023-05-09T09:04:43.323Z,2.00
2023-05-09T09:07:14.053Z,2.10
2023-05-09T09:09:49.013Z,1.70
2023-05-09T09:12:18.448Z,1.60
2023-05-09T09:14:56.740Z,1.40
2023-05-09T09:17:29.683Z,1.60
2023-05-09T09:20:05.679Z,1.80
2023-05-09T09:22:35.116Z,1.30
2023-05-09T09:25:04.248Z,1.10
2023-05-09T09:27:32.711Z,1.90
2023-05-09T09:30:08.002Z,1.50
2023-05-09T09:32:36.970Z,1.40
2023-05-09T09:35:10.400Z,7.00
2023-05-09T09:37:45.546Z,1.50
2023-05-09T09:40:14.901Z,4.60
2023-05-09T09:42:45.833Z,1.00
2023-05-09T09:45:17.282Z,3.60
2023-05-09T09:47:47.231Z,4.10
2023-05-09T09:50:23.403Z,1.40
2023-05-09T09:52:56.746Z,1.10
2023-05-09T09:55:25.280Z,8.70
2023-05-09T09:57:53.930Z,2.80
2023-05-09T10:00:32.298Z,1.20
2023-05-09T10:03:01.227Z,1.10
2023-05-09T10:05:31.180Z,1.30
2023-05-09T10:08:04.667Z,2.80
2023-05-09T10:13:12.235Z,1.90
2023-05-09T10:15:52.916Z,1.30
2023-05-09T10:18:27.409Z,3.30
2023-05-09T10:20:57.278Z,3.40
2023-05-09T10:23:25.608Z,1.50
2023-05-09T10:26:27.835Z,2.70
2023-05-09T10:28:58.367Z,1.90
2023-05-09T10:31:28.798Z,1.70
2023-05-09T10:34:01.959Z,1.80
2023-05-09T10:36:31.323Z,2.00
2023-05-09T10:39:01.307Z,2.10
2023-05-09T10:41:29.607Z,2.40
2023-05-09T10:43:59.266Z,2.60
2023-05-09T10:46:28.101Z,1.70
2023-05-09T10:48:56.815Z,1.30
2023-05-09T10:51:25.477Z,1.20
2023-05-09T10:53:56.047Z,2.10
2023-05-09T10:56:33.095Z,1.20
2023-05-09T10:59:02.398Z,1.30
2023-05-09T11:01:35.505Z,1.60
2023-05-09T11:04:12.902Z,1.30
2023-05-09T11:06:49.294Z,1.70
2023-05-09T11:09:33.425Z,1.20
2023-05-09T11:12:12.361Z,1.70
2023-05-09T11:14:46.408Z,1.20
2023-05-09T11:17:28.631Z,1.80
2023-05-09T11:20:03.495Z,4.40
2023-05-09T11:22:39.353Z,4.10
2023-05-09T11:25:15.274Z,2.30
2023-05-09T11:27:49.941Z,1.60
2023-05-09T11:30:20.957Z,2.90
2023-05-09T11:32:55.375Z,1.70
2023-05-09T11:35:26.513Z,3.10
2023-05-09T11:38:04.147Z,2.60
2023-05-09T11:40:34.213Z,2.60
2023-05-09T11:43:02.548Z,1.80
2023-05-09T11:45:32.972Z,3.10
2023-05-09T11:48:02.169Z,2.50
2023-05-09T11:50:30.683Z,3.00
2023-05-09T11:52:58.885Z,3.40
2023-05-09T11:55:30.178Z,2.90
2023-05-09T11:57:59.531Z,2.60
2023-05-09T12:00:28.055Z,3.00
2023-05-09T12:02:56.472Z,3.00
2023-05-09T12:05:25.196Z,1.30
2023-05-09T12:07:53.394Z,1.70
2023-05-09T12:10:26.004Z,1.90
2023-05-09T12:12:57.438Z,1.90
2023-05-09T12:15:25.723Z,2.00
2023-05-09T12:18:12.104Z,1.70
2023-05-09T12:20:51.388Z,1.90
2023-05-09T12:23:20.040Z,1.80
2023-05-09T12:25:56.293Z,2.40
2023-05-09T12:28:26.080Z,1.80
2023-05-09T12:30:55.027Z,5.40
2023-05-09T12:33:24.025Z,4.30
2023-05-09T12:36:11.342Z,2.60
2023-05-09T12:38:40.229Z,2.10
2023-05-09T12:41:21.966Z,2.70
2023-05-09T12:43:58.451Z,5.90
2023-05-09T12:46:26.801Z,2.20
2023-05-09T12:48:55.242Z,2.30
2023-05-09T12:51:23.584Z,2.40
2023-05-09T12:53:52.581Z,1.80
2023-05-09T12:56:25.386Z,2.60
2023-05-09T12:58:55.299Z,2.50
2023-05-09T13:01:27.918Z,2.70
2023-05-09T13:04:04.333Z,3.80
2023-05-09T13:06:33.547Z,3.90
2023-05-09T13:09:06.638Z,3.30
2023-05-09T13:11:35.433Z,4.10
2023-05-09T13:14:04.351Z,3.40
2023-05-09T13:16:32.644Z,3.80
2023-05-09T13:19:01.835Z,5.70
2023-05-09T13:21:30.298Z,3.00
2023-05-09T13:23:58.354Z,6.90
2023-05-09T13:26:27.626Z,4.10
2023-05-09T13:28:56.962Z,5.10
2023-05-09T13:31:25.282Z,4.60
2023-05-09T13:33:53.679Z,5.70
2023-05-09T13:36:22.083Z,5.50
2023-05-09T13:38:50.242Z,5.10
2023-05-09T13:41:23.948Z,6.30
2023-05-09T13:46:20.300Z,14.40
2023-05-09T13:48:48.732Z,7.40
2023-05-09T13:51:17.094Z,6.90
2023-05-09T13:53:45.504Z,6.10
2023-05-09T13:56:14.068Z,4.10
2023-05-09T13:58:42.338Z,3.70
2023-05-09T14:01:10.638Z,3.40
2023-05-09T14:03:38.815Z,3.70
2023-05-09T14:06:09.475Z,5.10
2023-05-09T14:08:39.761Z,6.60
2023-05-09T14:11:09.462Z,3.10
2023-05-09T14:13:37.462Z,3.40
2023-05-09T14:16:06.570Z,2.80
2023-05-09T14:18:35.527Z,5.40
2023-05-09T14:21:03.836Z,3.00
2023-05-09T14:23:32.290Z,2.50
2023-05-09T14:26:01.024Z,3.10
2023-05-09T14:28:29.253Z,6.90
2023-05-09T14:30:58.001Z,4.90
2023-05-09T14:33:27.376Z,3.60
2023-05-09T14:35:55.525Z,3.60
2023-05-09T14:38:23.676Z,5.00
2023-05-09T14:40:52.217Z,3.40
2023-05-09T14:43:22.426Z,3.20
2023-05-09T14:45:51.922Z,3.10
2023-05-09T14:48:20.194Z,3.80
2023-05-09T14:50:49.932Z,2.70
2023-05-09T14:53:18.585Z,4.50
2023-05-09T14:55:46.770Z,3.20
2023-05-09T14:58:16.270Z,3.20
2023-05-09T15:00:48.011Z,3.10
2023-05-09T15:03:16.208Z,3.40
2023-05-09T15:05:44.962Z,4.00
2023-05-09T15:08:13.011Z,3.20
2023-05-09T15:10:41.242Z,4.20
2023-05-09T15:13:11.053Z,3.40
2023-05-09T15:15:39.667Z,3.00
2023-05-09T15:18:12.539Z,3.60
2023-05-09T15:20:40.559Z,4.70
2023-05-09T15:23:09.213Z,4.50
2023-05-09T15:25:37.577Z,4.00
2023-05-09T15:28:07.100Z,3.30
2023-05-09T15:30:38.333Z,2.50
2023-05-09T15:33:07.968Z,4.40
2023-05-09T15:35:37.492Z,3.30
2023-05-09T15:38:05.828Z,2.90
2023-05-09T15:40:34.154Z,3.80
2023-05-09T15:43:07.938Z,3.80
2023-05-09T15:45:45.356Z,3.80
2023-05-09T15:48:14.923Z,4.90
2023-05-09T15:50:44.879Z,3.80
2023-05-09T15:53:13.134Z,3.90
2023-05-09T15:55:41.596Z,4.90
2023-05-09T15:58:11.047Z,4.00
2023-05-09T16:00:39.893Z,3.90
2023-05-09T16:03:08.188Z,5.60
2023-05-09T16:05:36.761Z,5.20
2023-05-09T16:08:05.444Z,4.90
2023-05-09T16:10:33.724Z,5.80
2023-05-09T16:13:01.849Z,3.40
2023-05-09T16:15:30.176Z,4.00
2023-05-09T16:17:58.501Z,4.80
2023-05-09T16:20:26.820Z,7.40
2023-05-09T16:22:54.888Z,23.20
2023-05-09T16:25:23.527Z,17.30
2023-05-09T16:27:51.675Z,8.90
2023-05-09T16:30:19.777Z,5.40
2023-05-09T16:32:47.910Z,4.60
2023-05-09T16:35:16.481Z,4.20
2023-05-09T16:37:44.647Z,4.20
2023-05-09T16:40:13.631Z,4.40
2023-05-09T16:42:42.887Z,4.30
2023-05-09T16:45:11.469Z,4.50
2023-05-09T16:47:39.598Z,4.30
2023-05-09T16:50:08.239Z,5.20
2023-05-09T16:52:36.325Z,4.90
2023-05-09T16:55:04.787Z,5.90
2023-05-09T16:57:33.346Z,4.60
2023-05-09T17:00:01.406Z,6.10
2023-05-09T17:02:29.585Z,5.50
2023-05-09T17:04:58.052Z,8.00
2023-05-09T17:07:26.212Z,7.90
2023-05-09T17:09:54.334Z,5.80
2023-05-09T17:12:22.551Z,5.20
2023-05-09T17:14:51.218Z,6.30
2023-05-09T17:17:19.237Z,7.30
2023-05-09T17:19:47.280Z,6.50
2023-05-09T17:22:15.272Z,4.00
2023-05-09T17:24:43.854Z,6.00
2023-05-09T17:27:11.928Z,12.90
2023-05-09T17:29:39.983Z,6.80
2023-05-09T17:32:08.123Z,5.50
2023-05-09T17:34:36.303Z,5.70
2023-05-09T17:37:05.858Z,5.20
2023-05-09T17:39:34.042Z,5.60
2023-05-09T17:42:02.023Z,6.20
2023-05-09T17:44:30.412Z,4.90
2023-05-09T17:46:58.969Z,4.90
2023-05-09T17:49:28.659Z,5.70
2023-05-09T17:51:56.962Z,5.90
2023-05-09T17:54:25.103Z,6.20
2023-05-09T17:56:59.045Z,12.40
2023-05-09T17:59:27.878Z,16.90
2023-05-09T18:01:56.126Z,18.30
2023-05-09T18:04:25.434Z,13.90
2023-05-09T18:06:54.251Z,13.40
2023-05-09T18:09:22.772Z,9.90
2023-05-09T18:11:50.891Z,10.20
2023-05-09T18:14:19.242Z,9.60
2023-05-09T18:16:47.528Z,12.40
2023-05-09T18:19:16.033Z,8.50
2023-05-09T18:21:45.699Z,7.50
2023-05-09T18:24:16.911Z,22.80
2023-05-09T18:26:45.368Z,17.90
2023-05-09T18:29:13.721Z,12.70
2023-05-09T18:31:42.118Z,14.20
2023-05-09T18:34:12.729Z,12.00
2023-05-09T18:36:41.232Z,9.40
2023-05-09T18:39:11.788Z,8.00
2023-05-09T18:41:39.921Z,10.20
2023-05-09T18:44:08.743Z,9.70
2023-05-09T18:46:38.148Z,11.90
2023-05-09T18:49:06.320Z,8.50
2023-05-09T18:51:35.839Z,9.50
2023-05-09T18:54:04.268Z,8.60
2023-05-09T18:56:39.024Z,8.20
2023-05-09T18:59:09.384Z,8.00
2023-05-09T19:01:38.078Z,7.90
2023-05-09T19:04:07.088Z,10.20
2023-05-09T19:06:35.529Z,9.40
2023-05-09T19:09:04.496Z,10.20
2023-05-09T19:11:32.650Z,9.70
2023-05-09T19:14:00.856Z,9.90
2023-05-09T19:16:29.082Z,19.80
2023-05-09T19:18:58.109Z,16.70
2023-05-09T19:21:26.400Z,19.30
2023-05-09T19:23:54.533Z,19.60
2023-05-09T19:26:22.622Z,18.20
2023-05-09T19:28:50.824Z,18.10
2023-05-09T19:31:20.516Z,20.60
2023-05-09T19:33:49.610Z,13.50
2023-05-09T19:36:18.445Z,18.00
2023-05-09T19:38:46.659Z,15.20
2023-05-09T19:41:15.054Z,13.80
2023-05-09T19:43:43.101Z,11.70
2023-05-09T19:46:11.268Z,10.20
2023-05-09T19:48:39.385Z,10.20
2023-05-09T19:51:08.942Z,7.70
2023-05-09T19:53:37.067Z,7.50
2023-05-09T19:56:07.921Z,13.90
2023-05-09T19:58:36.504Z,11.70
2023-05-09T20:01:06.860Z,10.50
2023-05-09T20:03:37.000Z,9.40
2023-05-09T20:06:05.833Z,8.20
2023-05-09T20:08:33.964Z,8.20
2023-05-09T20:11:01.950Z,7.80
2023-05-09T20:13:30.037Z,7.80
2023-05-09T20:15:59.181Z,6.30
2023-05-09T20:18:27.336Z,7.60
2023-05-09T20:20:55.410Z,7.60
2023-05-09T20:23:23.437Z,7.00
2023-05-09T20:25:51.517Z,5.70
2023-05-09T20:28:20.614Z,6.20
2023-05-09T20:30:50.067Z,6.40
2023-05-09T20:33:19.046Z,9.00
2023-05-09T20:35:49.191Z,6.30
2023-05-09T20:38:17.299Z,5.40
2023-05-09T20:40:45.305Z,5.60
2023-05-09T20:43:13.351Z,5.70
2023-05-09T20:45:41.416Z,5.60
2023-05-09T20:48:09.511Z,6.00
2023-05-09T20:50:37.599Z,6.00
2023-05-09T20:53:05.715Z,5.80
2023-05-09T20:55:33.747Z,6.00
2023-05-09T20:58:01.853Z,5.40
2023-05-09T21:00:30.110Z,6.20
2023-05-09T21:02:58.869Z,6.10
2023-05-09T21:05:27.178Z,5.90
2023-05-09T21:07:55.180Z,5.50
2023-05-09T21:10:23.215Z,6.10
2023-05-09T21:12:51.360Z,5.90
2023-05-09T21:15:19.463Z,6.00
2023-05-09T21:17:47.407Z,6.20
2023-05-09T21:20:16.411Z,5.50
2023-05-09T21:22:44.849Z,6.00
2023-05-09T21:25:13.163Z,6.00
2023-05-09T21:27:41.271Z,6.50
2023-05-09T21:30:10.136Z,6.50
2023-05-09T21:32:38.257Z,7.10
2023-05-09T21:35:10.658Z,6.70
2023-05-09T21:37:39.212Z,5.40
2023-05-09T21:40:08.041Z,5.90
2023-05-09T21:42:37.427Z,5.20
2023-05-09T21:45:07.747Z,5.20
2023-05-09T21:47:36.316Z,5.50
2023-05-09T21:50:04.926Z,4.90
2023-05-09T21:52:33.326Z,4.50
2023-05-09T21:55:01.906Z,4.50
2023-05-09T21:57:30.041Z,4.60
2023-05-09T22:00:01.457Z,4.40
2023-05-09T22:02:29.848Z,4.10
2023-05-09T22:04:58.048Z,5.00
2023-05-09T22:07:26.231Z,4.60
2023-05-09T22:09:54.386Z,4.60
2023-05-09T22:12:23.102Z,5.50
2023-05-09T22:14:56.171Z,5.30
2023-05-09T22:17:26.139Z,4.70
2023-05-09T22:19:54.350Z,4.90
2023-05-09T22:22:22.644Z,5.70
2023-05-09T22:24:50.819Z,4.80
2023-05-09T22:27:19.366Z,5.20
2023-05-09T22:29:47.909Z,27.50
2023-05-09T22:32:16.525Z,14.60
2023-05-09T22:34:48.144Z,8.60
2023-05-09T22:37:16.404Z,6.90
2023-05-09T22:39:46.638Z,6.00
2023-05-09T22:42:16.055Z,5.30
2023-05-09T22:44:44.298Z,5.40
2023-05-09T22:47:12.614Z,6.70
2023-05-09T22:49:40.825Z,5.00
2023-05-09T22:52:09.936Z,4.40
2023-05-09T22:54:38.303Z,4.80
2023-05-09T22:57:06.585Z,4.40
2023-05-09T22:59:35.715Z,4.30
2023-05-09T23:02:05.007Z,4.50
2023-05-09T23:04:33.877Z,6.00
2023-05-09T23:07:02.662Z,5.20
2023-05-09T23:09:30.952Z,5.10
2023-05-09T23:11:59.654Z,5.20
2023-05-09T23:14:28.273Z,5.50
2023-05-09T23:16:56.776Z,5.90
2023-05-09T23:19:24.949Z,6.20
2023-05-09T23:21:53.681Z,6.50
2023-05-09T23:24:21.867Z,6.00
2023-05-09T23:26:50.697Z,5.70
2023-05-09T23:29:21.651Z,5.10
2023-05-09T23:31:53.723Z,4.90
2023-05-09T23:34:25.663Z,4.90
2023-05-09T23:36:56.094Z,5.30
2023-05-09T23:39:26.682Z,5.40
2023-05-09T23:41:57.636Z,5.60
2023-05-09T23:44:28.685Z,4.20
2023-05-09T23:47:01.834Z,5.20
2023-05-09T23:49:33.730Z,4.80
2023-05-09T23:52:04.664Z,4.70
2023-05-09T23:54:35.658Z,5.40
2023-05-09T23:57:05.942Z,5.40
2023-05-09T23:59:36.675Z,4.90
